Terminal Aerodrome Forecast
Issued by NWS

Home | Current Version | Previous Version | Text Only | Print | Product List | Glossary On
Versions: 1 2 3 4 5 6 7 8 9 10 11 12 13 14 15 16 17 18 19 20
000
FTUS41 KBTV 011100
TAFMPV
TAF
KMPV 011127Z 0112/0212 00000KT 3SM BR SCT001
      TEMPO 0112/0113 3/4SM BR BKN001
     FM011400 19006KT P6SM SCT060
     FM020600 00000KT 1/2SM FG VV001=

USA.gov is the U.S. government's official web portal to all federal, state and local government web resources and services.